createdAt,value
2023-04-30T00:00:18.045Z,73.24
2023-04-30T00:02:46.094Z,73.18
2023-04-30T00:05:14.300Z,73.04
2023-04-30T00:07:43.660Z,72.91
2023-04-30T00:10:12.436Z,72.90
2023-04-30T00:12:40.433Z,73.03
2023-04-30T00:15:09.016Z,73.08
2023-04-30T00:17:36.931Z,73.08
2023-04-30T00:20:05.303Z,73.12
2023-04-30T00:22:34.736Z,73.35
2023-04-30T00:25:03.064Z,73.42
2023-04-30T00:27:31.703Z,73.60
2023-04-30T00:30:00.183Z,73.80
2023-04-30T00:32:28.178Z,74.02
2023-04-30T00:34:56.097Z,74.20
2023-04-30T00:37:24.005Z,74.34
2023-04-30T00:39:52.149Z,74.57
2023-04-30T00:42:20.265Z,74.77
2023-04-30T00:44:48.183Z,74.92
2023-04-30T00:47:16.146Z,75.07
2023-04-30T00:49:44.000Z,75.24
2023-04-30T00:52:11.976Z,75.62
2023-04-30T00:54:40.024Z,75.98
2023-04-30T00:57:11.027Z,76.62
2023-04-30T00:59:40.265Z,76.72
2023-04-30T01:02:08.761Z,77.37
2023-04-30T01:04:37.417Z,77.70
2023-04-30T01:07:05.648Z,77.91
2023-04-30T01:09:34.253Z,77.85
2023-04-30T01:12:14.807Z,78.04
2023-04-30T01:14:42.842Z,78.74
2023-04-30T01:17:22.609Z,78.63
2023-04-30T01:19:51.074Z,78.57
2023-04-30T01:22:27.894Z,78.97
2023-04-30T01:25:16.941Z,78.79
2023-04-30T01:28:04.772Z,79.04
2023-04-30T01:30:33.447Z,79.07
2023-04-30T01:33:01.733Z,79.09
2023-04-30T01:36:04.879Z,79.43
2023-04-30T01:39:04.948Z,79.85
2023-04-30T01:41:32.778Z,80.42
2023-04-30T01:44:45.479Z,80.08
2023-04-30T01:47:42.692Z,81.13
2023-04-30T01:50:14.336Z,81.08
2023-04-30T01:52:48.449Z,80.78
2023-04-30T01:55:26.151Z,80.73
2023-04-30T01:58:03.313Z,81.03
2023-04-30T02:00:34.429Z,80.94
2023-04-30T02:03:02.712Z,80.88
2023-04-30T02:05:30.760Z,81.17
2023-04-30T02:07:58.688Z,81.07
2023-04-30T02:10:28.209Z,81.27
2023-04-30T02:12:56.244Z,81.09
2023-04-30T02:15:24.295Z,81.17
2023-04-30T02:17:52.608Z,81.03
2023-04-30T02:20:20.692Z,81.14
2023-04-30T02:22:48.634Z,81.06
2023-04-30T02:25:16.663Z,81.07
2023-04-30T02:27:44.596Z,81.04
2023-04-30T02:30:12.652Z,81.15
2023-04-30T02:32:40.680Z,81.08
2023-04-30T02:35:08.912Z,81.43
2023-04-30T02:37:36.859Z,81.06
2023-04-30T02:40:05.065Z,81.06
2023-04-30T02:42:33.107Z,80.91
2023-04-30T02:45:01.030Z,80.72
2023-04-30T02:47:28.990Z,80.55
2023-04-30T02:49:57.266Z,80.36
2023-04-30T02:52:25.379Z,80.12
2023-04-30T02:54:53.315Z,79.96
2023-04-30T02:57:21.204Z,79.84
2023-04-30T02:59:49.187Z,80.00
2023-04-30T03:02:17.185Z,79.95
2023-04-30T03:04:45.077Z,79.88
2023-04-30T03:07:12.909Z,79.73
2023-04-30T03:09:40.794Z,79.66
2023-04-30T03:12:08.827Z,79.47
2023-04-30T03:14:36.774Z,79.26
2023-04-30T03:17:04.728Z,79.07
2023-04-30T03:19:33.089Z,78.99
2023-04-30T03:22:01.162Z,78.85
2023-04-30T03:24:29.155Z,78.85
2023-04-30T03:26:57.082Z,78.85
2023-04-30T03:29:25.026Z,78.86
2023-04-30T03:31:53.708Z,78.65
2023-04-30T03:34:21.725Z,78.63
2023-04-30T03:36:49.596Z,78.69
2023-04-30T03:39:17.528Z,78.79
2023-04-30T03:41:45.498Z,78.61
2023-04-30T03:44:17.013Z,78.57
2023-04-30T03:46:45.408Z,78.34
2023-04-30T03:49:13.403Z,78.21
2023-04-30T03:51:43.101Z,78.16
2023-04-30T03:54:11.604Z,78.05
2023-04-30T03:56:39.680Z,78.15
2023-04-30T03:59:07.682Z,78.24
2023-04-30T04:01:35.577Z,78.26
2023-04-30T04:04:03.799Z,78.26
2023-04-30T04:06:32.120Z,78.23
2023-04-30T04:09:00.135Z,78.29
2023-04-30T04:11:28.059Z,78.27
2023-04-30T04:13:57.038Z,78.37
2023-04-30T04:16:25.012Z,78.33
2023-04-30T04:18:52.968Z,78.42
2023-04-30T04:21:22.891Z,78.44
2023-04-30T04:23:51.043Z,78.50
2023-04-30T04:26:21.017Z,78.56
2023-04-30T04:28:49.478Z,78.59
2023-04-30T04:31:18.007Z,78.63
2023-04-30T04:33:46.045Z,78.64
2023-04-30T04:36:13.961Z,78.56
2023-04-30T04:38:42.581Z,78.72
2023-04-30T04:41:10.529Z,78.73
2023-04-30T04:43:38.893Z,78.77
2023-04-30T04:46:06.897Z,78.80
2023-04-30T04:48:34.829Z,78.77
2023-04-30T04:51:02.848Z,78.85
2023-04-30T04:53:31.775Z,78.69
2023-04-30T04:56:00.807Z,78.78
2023-04-30T04:58:29.593Z,78.75
2023-04-30T05:00:58.690Z,78.71
2023-04-30T05:03:26.797Z,78.70
2023-04-30T05:05:54.772Z,78.68
2023-04-30T05:08:22.908Z,78.77
2023-04-30T05:10:50.786Z,78.84
2023-04-30T05:13:18.630Z,78.78
2023-04-30T05:15:46.536Z,78.88
2023-04-30T05:18:14.404Z,78.78
2023-04-30T05:20:42.263Z,78.74
2023-04-30T05:23:10.211Z,78.73
2023-04-30T05:25:38.560Z,78.61
2023-04-30T05:28:07.916Z,78.66
2023-04-30T05:30:36.146Z,78.64
2023-04-30T05:33:04.098Z,78.45
2023-04-30T05:35:33.019Z,78.51
2023-04-30T05:38:00.939Z,78.50
2023-04-30T05:40:28.876Z,78.45
2023-04-30T05:42:57.631Z,78.54
2023-04-30T05:45:25.931Z,78.43
2023-04-30T05:47:53.973Z,78.47
2023-04-30T05:50:21.902Z,78.40
2023-04-30T05:52:49.758Z,78.38
2023-04-30T05:55:17.926Z,78.28
2023-04-30T05:57:45.789Z,78.33
2023-04-30T06:00:14.413Z,78.69
2023-04-30T06:02:42.569Z,78.47
2023-04-30T06:05:11.174Z,78.36
2023-04-30T06:07:39.356Z,78.19
2023-04-30T06:10:08.346Z,78.28
2023-04-30T06:12:36.493Z,78.16
2023-04-30T06:15:04.850Z,78.09
2023-04-30T06:17:32.910Z,77.97
2023-04-30T06:20:03.660Z,77.96
2023-04-30T06:22:32.046Z,77.85
2023-04-30T06:25:00.032Z,77.73
2023-04-30T06:27:30.867Z,77.63
2023-04-30T06:29:58.831Z,77.45
2023-04-30T06:32:26.811Z,77.64
2023-04-30T06:34:54.854Z,77.48
2023-04-30T06:37:22.872Z,77.51
2023-04-30T06:39:50.991Z,77.30
2023-04-30T06:42:18.935Z,77.25
2023-04-30T06:44:48.588Z,77.19
2023-04-30T06:47:16.551Z,77.03
2023-04-30T06:49:44.566Z,77.05
2023-04-30T06:52:12.455Z,76.95
2023-04-30T06:54:40.399Z,76.67
2023-04-30T06:57:08.523Z,76.51
2023-04-30T06:59:36.421Z,76.49
2023-04-30T07:02:05.550Z,76.08
2023-04-30T07:04:33.419Z,75.92
2023-04-30T07:07:03.416Z,75.67
2023-04-30T07:09:31.571Z,75.58
2023-04-30T07:12:00.076Z,75.44
2023-04-30T07:14:28.282Z,75.05
2023-04-30T07:16:57.694Z,74.84
2023-04-30T07:19:28.249Z,74.62
2023-04-30T07:21:56.209Z,74.57
2023-04-30T07:24:24.156Z,74.33
2023-04-30T07:26:52.251Z,74.30
2023-04-30T07:29:20.195Z,73.70
2023-04-30T07:31:48.129Z,73.57
2023-04-30T07:34:16.021Z,73.64
2023-04-30T07:36:44.025Z,73.61
2023-04-30T07:39:13.063Z,73.02
2023-04-30T07:41:40.934Z,72.81
2023-04-30T07:44:08.811Z,72.60
2023-04-30T07:46:37.896Z,72.12
2023-04-30T07:49:05.938Z,71.56
2023-04-30T07:51:34.337Z,70.88
2023-04-30T07:54:02.201Z,70.36
2023-04-30T07:56:30.218Z,70.66
2023-04-30T07:58:58.075Z,70.51
2023-04-30T08:01:26.018Z,69.99
2023-04-30T08:03:54.000Z,69.50
2023-04-30T08:06:22.532Z,69.90
2023-04-30T08:08:50.596Z,69.55
2023-04-30T08:11:18.482Z,69.58
2023-04-30T08:13:46.617Z,69.55
2023-04-30T08:16:14.658Z,69.54
2023-04-30T08:18:46.081Z,69.44
2023-04-30T08:21:14.906Z,69.18
2023-04-30T08:23:42.885Z,68.80
2023-04-30T08:26:10.945Z,68.84
2023-04-30T08:28:38.896Z,68.48
2023-04-30T08:31:07.001Z,68.37
2023-04-30T08:33:35.037Z,67.85
2023-04-30T08:36:03.014Z,67.33
2023-04-30T08:38:30.940Z,66.92
2023-04-30T08:41:10.444Z,66.60
2023-04-30T08:43:38.890Z,65.61
2023-04-30T08:46:07.543Z,65.68
2023-04-30T08:48:36.065Z,64.02
2023-04-30T08:51:05.247Z,64.74
2023-04-30T08:53:36.945Z,64.48
2023-04-30T08:56:05.991Z,62.83
2023-04-30T08:58:34.225Z,61.76
2023-04-30T09:01:03.791Z,60.94
2023-04-30T09:03:32.882Z,62.09
2023-04-30T09:06:00.986Z,62.00
2023-04-30T09:08:48.204Z,61.71
2023-04-30T09:11:32.186Z,61.28
2023-04-30T09:14:01.792Z,61.09
2023-04-30T09:16:34.152Z,61.90
2023-04-30T09:19:02.318Z,61.00
2023-04-30T09:21:34.384Z,60.48
2023-04-30T09:24:07.021Z,60.63
2023-04-30T09:26:37.695Z,60.31
2023-04-30T09:29:09.833Z,60.17
2023-04-30T09:31:39.475Z,59.96
2023-04-30T09:34:07.801Z,60.01
2023-04-30T09:36:36.522Z,59.20
2023-04-30T09:39:11.457Z,59.20
2023-04-30T09:41:40.961Z,59.38
2023-04-30T09:44:08.956Z,59.39
2023-04-30T09:46:40.014Z,59.22
2023-04-30T09:49:08.943Z,58.89
2023-04-30T09:51:37.017Z,58.54
2023-04-30T09:54:06.091Z,57.87
2023-04-30T09:56:39.110Z,57.40
2023-04-30T09:59:10.206Z,57.21
2023-04-30T10:01:40.970Z,56.88
2023-04-30T10:04:09.328Z,56.75
2023-04-30T10:06:37.947Z,57.03
2023-04-30T10:09:07.560Z,56.70
2023-04-30T10:11:38.879Z,56.60
2023-04-30T10:14:13.577Z,56.17
2023-04-30T10:17:05.694Z,55.81
2023-04-30T10:19:35.881Z,55.51
2023-04-30T10:22:04.110Z,55.82
2023-04-30T10:24:32.495Z,55.70
2023-04-30T10:27:01.357Z,54.28
2023-04-30T10:29:29.317Z,54.91
2023-04-30T10:31:58.691Z,54.93
2023-04-30T10:35:12.313Z,54.60
2023-04-30T10:37:47.571Z,54.78
2023-04-30T10:40:16.381Z,54.90
2023-04-30T10:42:56.325Z,54.58
2023-04-30T10:45:42.796Z,54.06
2023-04-30T10:48:11.509Z,54.22
2023-04-30T10:50:46.090Z,54.57
2023-04-30T10:53:19.243Z,54.05
2023-04-30T10:55:58.555Z,53.92
2023-04-30T10:58:33.549Z,53.17
2023-04-30T11:01:19.836Z,53.49
2023-04-30T11:04:07.645Z,53.14
2023-04-30T11:06:57.452Z,52.76
2023-04-30T11:09:45.858Z,52.45
2023-04-30T11:12:23.237Z,52.26
2023-04-30T11:14:51.748Z,52.61
2023-04-30T11:17:25.312Z,52.80
2023-04-30T11:19:55.221Z,51.99
2023-04-30T11:22:25.806Z,52.36
2023-04-30T11:25:10.965Z,51.70
2023-04-30T11:27:41.359Z,51.52
2023-04-30T11:30:17.508Z,51.77
2023-04-30T11:32:48.727Z,51.82
2023-04-30T11:35:20.806Z,52.02
2023-04-30T11:37:50.202Z,51.73
2023-04-30T11:40:18.116Z,51.91
2023-04-30T11:42:46.633Z,51.84
2023-04-30T11:45:18.805Z,52.03
2023-04-30T11:47:49.372Z,52.38
2023-04-30T11:50:19.572Z,52.06
2023-04-30T11:52:52.066Z,52.44
2023-04-30T11:55:22.207Z,51.58
2023-04-30T11:57:52.855Z,51.88
2023-04-30T12:00:22.917Z,52.19
2023-04-30T12:02:51.675Z,51.94
2023-04-30T12:05:22.322Z,51.77
2023-04-30T12:07:56.467Z,51.86
2023-04-30T12:10:26.032Z,51.04
2023-04-30T12:12:55.924Z,50.93
2023-04-30T12:15:27.824Z,50.73
2023-04-30T12:18:00.313Z,50.14
2023-04-30T12:20:30.430Z,50.51
2023-04-30T12:22:59.510Z,50.14
2023-04-30T12:25:30.250Z,50.62
2023-04-30T12:28:01.107Z,49.95
2023-04-30T12:30:29.197Z,50.55
2023-04-30T12:33:01.380Z,50.64
2023-04-30T12:35:32.261Z,50.37
2023-04-30T12:38:10.911Z,50.43
2023-04-30T12:40:39.214Z,49.86
2023-04-30T12:43:09.334Z,50.39
2023-04-30T12:45:54.196Z,50.22
2023-04-30T12:48:25.036Z,49.91
2023-04-30T12:50:54.625Z,50.32
2023-04-30T12:53:23.317Z,49.58
2023-04-30T12:56:13.666Z,49.42
2023-04-30T12:58:41.975Z,47.98
2023-04-30T13:01:14.493Z,48.41
2023-04-30T13:03:42.843Z,48.45
2023-04-30T13:06:11.824Z,48.75
2023-04-30T13:08:50.264Z,48.54
2023-04-30T13:11:27.008Z,48.67
2023-04-30T13:13:56.898Z,48.53
2023-04-30T13:16:26.108Z,48.69
2023-04-30T13:18:54.361Z,48.70
2023-04-30T13:21:22.843Z,48.96
2023-04-30T13:23:54.316Z,48.87
2023-04-30T13:26:24.347Z,48.83
2023-04-30T13:28:52.455Z,49.28
2023-04-30T13:31:20.857Z,49.29
2023-04-30T13:33:49.080Z,49.22
2023-04-30T13:36:17.099Z,49.25
2023-04-30T13:38:44.964Z,49.06
2023-04-30T13:41:13.009Z,48.95
2023-04-30T13:43:43.417Z,48.83
2023-04-30T13:46:11.599Z,49.06
2023-04-30T13:48:39.753Z,49.18
2023-04-30T13:51:07.834Z,49.25
2023-04-30T13:53:36.997Z,48.80
2023-04-30T13:56:05.008Z,49.14
2023-04-30T13:58:32.985Z,49.15
2023-04-30T14:01:01.080Z,49.03
2023-04-30T14:03:29.137Z,49.19
2023-04-30T14:05:57.090Z,49.13
2023-04-30T14:08:25.200Z,49.48
2023-04-30T14:10:53.240Z,49.27
2023-04-30T14:13:21.143Z,49.40
2023-04-30T14:15:49.748Z,49.20
2023-04-30T14:18:17.649Z,49.29
2023-04-30T14:20:45.594Z,49.46
2023-04-30T14:23:14.030Z,49.44
2023-04-30T14:25:42.421Z,49.27
2023-04-30T14:28:10.358Z,49.48
2023-04-30T14:30:38.664Z,49.32
2023-04-30T14:33:06.917Z,49.46
2023-04-30T14:35:35.063Z,49.51
2023-04-30T14:38:03.028Z,49.56
2023-04-30T14:40:31.118Z,49.65
2023-04-30T14:42:59.004Z,49.78
2023-04-30T14:45:29.750Z,49.96
2023-04-30T14:47:57.859Z,50.17
2023-04-30T14:50:25.869Z,50.34
2023-04-30T14:52:53.795Z,50.70
2023-04-30T14:55:21.874Z,50.99
2023-04-30T14:57:49.862Z,50.89
2023-04-30T15:00:18.178Z,50.94
2023-04-30T15:02:46.203Z,50.93
2023-04-30T15:05:14.308Z,50.50
2023-04-30T15:07:42.360Z,50.80
2023-04-30T15:10:10.924Z,50.70
2023-04-30T15:12:38.865Z,50.96
2023-04-30T15:15:08.323Z,51.11
2023-04-30T15:17:38.333Z,51.03
2023-04-30T15:20:07.920Z,51.03
2023-04-30T15:22:35.986Z,50.98
2023-04-30T15:25:04.151Z,51.10
2023-04-30T15:27:33.787Z,51.21
2023-04-30T15:30:02.065Z,51.27
2023-04-30T15:32:30.088Z,51.23
2023-04-30T15:34:58.088Z,51.32
2023-04-30T15:37:26.054Z,51.31
2023-04-30T15:39:54.317Z,51.16
2023-04-30T15:42:22.389Z,51.19
2023-04-30T15:44:50.224Z,51.24
2023-04-30T15:47:18.217Z,51.39
2023-04-30T15:49:46.304Z,51.60
2023-04-30T15:52:14.324Z,51.84
2023-04-30T15:54:42.250Z,52.12
2023-04-30T15:57:10.175Z,52.38
2023-04-30T15:59:38.183Z,52.53
2023-04-30T16:02:06.134Z,52.47
2023-04-30T16:04:34.066Z,52.53
2023-04-30T16:07:02.613Z,52.54
2023-04-30T16:09:31.339Z,52.63
2023-04-30T16:12:00.220Z,52.70
2023-04-30T16:14:28.301Z,52.63
2023-04-30T16:16:56.415Z,52.59
2023-04-30T16:19:24.451Z,52.57
2023-04-30T16:21:52.417Z,52.64
2023-04-30T16:24:20.545Z,52.85
2023-04-30T16:26:48.390Z,52.99
2023-04-30T16:29:16.602Z,53.23
2023-04-30T16:31:45.223Z,53.37
2023-04-30T16:34:13.540Z,53.40
2023-04-30T16:36:42.109Z,53.30
2023-04-30T16:39:10.196Z,52.77
2023-04-30T16:41:39.281Z,53.14
2023-04-30T16:44:07.259Z,53.45
2023-04-30T16:46:36.567Z,53.55
2023-04-30T16:49:05.266Z,53.47
2023-04-30T16:51:34.454Z,53.34
2023-04-30T16:54:02.337Z,53.36
2023-04-30T16:56:30.324Z,53.33
2023-04-30T16:58:58.329Z,53.31
2023-04-30T17:01:26.464Z,53.39
2023-04-30T17:03:55.572Z,53.48
2023-04-30T17:06:23.937Z,53.42
2023-04-30T17:08:51.876Z,53.44
2023-04-30T17:11:22.478Z,53.58
2023-04-30T17:13:50.461Z,53.68
2023-04-30T17:16:18.557Z,53.68
2023-04-30T17:18:46.494Z,53.72
2023-04-30T17:21:14.540Z,53.77
2023-04-30T17:23:42.471Z,53.85
2023-04-30T17:26:10.885Z,53.94
2023-04-30T17:28:38.964Z,54.10
2023-04-30T17:31:08.679Z,54.13
2023-04-30T17:33:36.763Z,54.17
2023-04-30T17:36:04.673Z,54.18
2023-04-30T17:38:32.660Z,54.21
2023-04-30T17:41:00.654Z,54.33
2023-04-30T17:43:29.056Z,54.38
2023-04-30T17:45:58.581Z,54.31
2023-04-30T17:48:26.499Z,54.31
2023-04-30T17:50:54.624Z,54.37
2023-04-30T17:53:22.604Z,54.44
2023-04-30T17:55:50.530Z,54.43
2023-04-30T17:58:18.779Z,54.53
2023-04-30T18:00:47.015Z,54.70
2023-04-30T18:03:15.020Z,54.88
2023-04-30T18:05:43.686Z,55.18
2023-04-30T18:08:11.645Z,55.06
2023-04-30T18:10:39.624Z,55.12
2023-04-30T18:13:07.690Z,55.24
2023-04-30T18:15:35.661Z,55.29
2023-04-30T18:18:03.669Z,55.30
2023-04-30T18:20:31.617Z,55.49
2023-04-30T18:22:59.573Z,55.58
2023-04-30T18:25:27.762Z,55.71
2023-04-30T18:27:55.635Z,56.05
2023-04-30T18:30:23.519Z,56.16
2023-04-30T18:32:51.545Z,56.21
2023-04-30T18:35:19.607Z,56.06
2023-04-30T18:37:47.709Z,55.99
2023-04-30T18:40:15.677Z,56.09
2023-04-30T18:42:43.628Z,56.19
2023-04-30T18:45:13.119Z,56.15
2023-04-30T18:47:41.252Z,56.18
2023-04-30T18:50:12.024Z,56.09
2023-04-30T18:52:40.467Z,56.03
2023-04-30T18:55:09.041Z,56.10
2023-04-30T18:57:37.314Z,56.32
2023-04-30T19:00:08.077Z,56.30
2023-04-30T19:02:36.354Z,56.28
2023-04-30T19:05:04.880Z,56.36
2023-04-30T19:07:32.798Z,56.10
2023-04-30T19:10:00.754Z,56.18
2023-04-30T19:12:28.712Z,56.34
2023-04-30T19:14:56.667Z,56.46
2023-04-30T19:17:24.896Z,56.63
2023-04-30T19:19:53.097Z,56.80
2023-04-30T19:22:21.327Z,57.06
2023-04-30T19:24:49.369Z,56.83
2023-04-30T19:27:17.445Z,56.81
2023-04-30T19:29:45.580Z,56.78
2023-04-30T19:32:13.624Z,56.58
2023-04-30T19:34:41.932Z,56.65
2023-04-30T19:37:09.978Z,56.60
2023-04-30T19:39:38.200Z,56.69
2023-04-30T19:42:07.317Z,56.59
2023-04-30T19:44:35.533Z,56.59
2023-04-30T19:47:03.646Z,56.60
2023-04-30T19:49:31.772Z,56.71
2023-04-30T19:51:59.874Z,56.60
2023-04-30T19:54:27.767Z,56.62
2023-04-30T19:56:55.945Z,56.77
2023-04-30T19:59:23.889Z,56.68
2023-04-30T20:01:53.764Z,56.62
2023-04-30T20:04:21.978Z,56.67
2023-04-30T20:06:53.233Z,56.61
2023-04-30T20:09:21.248Z,56.69
2023-04-30T20:11:51.084Z,56.71
2023-04-30T20:14:20.020Z,56.80
2023-04-30T20:16:53.557Z,56.98
2023-04-30T20:19:26.615Z,56.98
2023-04-30T20:21:54.985Z,57.03
2023-04-30T20:24:23.928Z,57.04
2023-04-30T20:26:51.974Z,57.01
2023-04-30T20:29:21.938Z,57.01
2023-04-30T20:31:50.009Z,57.20
2023-04-30T20:34:18.181Z,57.20
2023-04-30T20:36:46.361Z,57.12
2023-04-30T20:39:14.857Z,57.34
2023-04-30T20:41:42.854Z,57.36
2023-04-30T20:44:11.168Z,57.36
2023-04-30T20:46:39.687Z,57.53
2023-04-30T20:49:07.725Z,57.54
2023-04-30T20:51:35.675Z,57.42
2023-04-30T20:54:03.638Z,57.39
2023-04-30T20:56:32.701Z,57.84
2023-04-30T20:59:00.556Z,57.65
2023-04-30T21:01:29.061Z,57.68
2023-04-30T21:03:57.143Z,57.72
2023-04-30T21:06:25.110Z,57.69
2023-04-30T21:08:53.000Z,57.80
2023-04-30T21:11:21.907Z,57.94
2023-04-30T21:13:51.437Z,57.98
2023-04-30T21:16:20.022Z,58.25
2023-04-30T21:18:49.982Z,58.11
2023-04-30T21:21:18.316Z,58.06
2023-04-30T21:23:48.203Z,58.01
2023-04-30T21:26:16.741Z,57.99
2023-04-30T21:28:45.337Z,58.37
2023-04-30T21:31:13.406Z,58.85
2023-04-30T21:33:41.558Z,58.98
2023-04-30T21:36:09.431Z,59.04
2023-04-30T21:38:37.991Z,59.00
2023-04-30T21:41:06.316Z,59.09
2023-04-30T21:43:34.261Z,59.71
2023-04-30T21:46:05.329Z,59.87
2023-04-30T21:48:33.360Z,59.64
2023-04-30T21:51:01.709Z,59.44
2023-04-30T21:53:29.609Z,59.32
2023-04-30T21:55:58.502Z,59.71
2023-04-30T21:58:26.484Z,60.05
2023-04-30T22:00:56.148Z,59.84
2023-04-30T22:03:24.160Z,59.46
2023-04-30T22:05:52.230Z,59.46
2023-04-30T22:08:20.328Z,59.41
2023-04-30T22:10:49.675Z,59.37
2023-04-30T22:13:17.593Z,59.22
2023-04-30T22:15:48.376Z,59.20
2023-04-30T22:18:17.062Z,59.25
2023-04-30T22:20:45.017Z,59.60
2023-04-30T22:23:13.035Z,59.80
2023-04-30T22:25:40.990Z,59.84
2023-04-30T22:28:08.960Z,59.88
2023-04-30T22:30:37.829Z,59.97
2023-04-30T22:33:05.937Z,60.39
2023-04-30T22:35:39.297Z,60.95
2023-04-30T22:38:08.040Z,61.39
2023-04-30T22:40:39.746Z,61.12
2023-04-30T22:43:08.370Z,61.15
2023-04-30T22:45:39.576Z,61.51
2023-04-30T22:48:10.954Z,61.63
2023-04-30T22:50:39.563Z,61.73
2023-04-30T22:53:07.960Z,61.83
2023-04-30T22:55:37.097Z,61.62
2023-04-30T22:58:04.948Z,61.43
2023-04-30T23:00:32.941Z,61.58
2023-04-30T23:03:00.936Z,61.37
2023-04-30T23:05:28.834Z,61.55
2023-04-30T23:07:56.729Z,61.67
2023-04-30T23:10:24.634Z,61.77
2023-04-30T23:12:53.138Z,61.52
2023-04-30T23:15:21.027Z,61.42
2023-04-30T23:17:49.056Z,61.30
2023-04-30T23:20:17.323Z,61.16
2023-04-30T23:22:45.308Z,61.26
2023-04-30T23:25:13.606Z,61.54
2023-04-30T23:27:41.528Z,61.48
2023-04-30T23:30:11.015Z,61.31
2023-04-30T23:32:39.007Z,61.83
2023-04-30T23:35:09.082Z,62.24
2023-04-30T23:37:37.339Z,62.66
2023-04-30T23:40:08.646Z,62.47
2023-04-30T23:42:36.754Z,62.26
2023-04-30T23:45:05.117Z,62.01
2023-04-30T23:47:34.319Z,61.97
2023-04-30T23:50:02.306Z,61.81
2023-04-30T23:52:30.304Z,61.83
2023-04-30T23:54:58.643Z,61.94
2023-04-30T23:57:28.880Z,61.91
2023-04-30T23:59:57.400Z,61.94
